sensor_id;sensor_type;location;lat;lon;timestamp;temperature;humidity
49385;DHT22;36795;45.028;38.968;2022-10-23T00:01:49;10.10;73.80
49385;DHT22;36795;45.028;38.968;2022-10-23T00:04:36;10.10;73.70
49385;DHT22;36795;45.028;38.968;2022-10-23T00:07:22;10.10;73.90
49385;DHT22;36795;45.028;38.968;2022-10-23T00:10:09;10.00;73.90
49385;DHT22;36795;45.028;38.968;2022-10-23T00:12:54;10.00;74.00
49385;DHT22;36795;45.028;38.968;2022-10-23T00:15:41;10.10;74.00
49385;DHT22;36795;45.028;38.968;2022-10-23T00:18:27;10.10;74.20
49385;DHT22;36795;45.028;38.968;2022-10-23T00:21:15;10.10;74.40
49385;DHT22;36795;45.028;38.968;2022-10-23T00:24:01;10.20;74.10
49385;DHT22;36795;45.028;38.968;2022-10-23T00:26:49;10.30;74.10
49385;DHT22;36795;45.028;38.968;2022-10-23T00:29:35;10.30;74.10
49385;DHT22;36795;45.028;38.968;2022-10-23T00:32:22;10.30;74.00
49385;DHT22;36795;45.028;38.968;2022-10-23T00:35:08;10.30;74.00
49385;DHT22;36795;45.028;38.968;2022-10-23T00:37:54;10.30;74.10
49385;DHT22;36795;45.028;38.968;2022-10-23T00:40:40;10.20;74.20
49385;DHT22;36795;45.028;38.968;2022-10-23T00:43:30;10.20;74.40
49385;DHT22;36795;45.028;38.968;2022-10-23T00:46:16;10.20;74.60
49385;DHT22;36795;45.028;38.968;2022-10-23T00:49:03;10.20;74.60
49385;DHT22;36795;45.028;38.968;2022-10-23T00:51:58;10.20;74.70
49385;DHT22;36795;45.028;38.968;2022-10-23T00:54:46;10.30;74.80
49385;DHT22;36795;45.028;38.968;2022-10-23T00:57:32;10.20;74.70
49385;DHT22;36795;45.028;38.968;2022-10-23T01:03:07;10.20;74.80
49385;DHT22;36795;45.028;38.968;2022-10-23T01:06:35;10.30;74.90
49385;DHT22;36795;45.028;38.968;2022-10-23T01:15:25;10.50;75.30
49385;DHT22;36795;45.028;38.968;2022-10-23T01:18:26;10.50;74.60
49385;DHT22;36795;45.028;38.968;2022-10-23T01:21:27;10.50;74.80
49385;DHT22;36795;45.028;38.968;2022-10-23T01:24:52;10.40;74.60
49385;DHT22;36795;45.028;38.968;2022-10-23T01:27:44;10.40;74.70
49385;DHT22;36795;45.028;38.968;2022-10-23T01:30:34;10.40;74.80
49385;DHT22;36795;45.028;38.968;2022-10-23T01:33:31;10.40;74.90
49385;DHT22;36795;45.028;38.968;2022-10-23T01:36:20;10.40;74.90
49385;DHT22;36795;45.028;38.968;2022-10-23T01:39:24;10.30;74.80
49385;DHT22;36795;45.028;38.968;2022-10-23T01:42:24;10.40;75.10
49385;DHT22;36795;45.028;38.968;2022-10-23T01:45:38;10.30;75.20
49385;DHT22;36795;45.028;38.968;2022-10-23T01:48:28;10.20;75.30
49385;DHT22;36795;45.028;38.968;2022-10-23T01:51:16;10.20;75.40
49385;DHT22;36795;45.028;38.968;2022-10-23T01:54:06;10.20;75.40
49385;DHT22;36795;45.028;38.968;2022-10-23T01:56:54;10.20;75.50
49385;DHT22;36795;45.028;38.968;2022-10-23T01:59:55;10.10;75.50
49385;DHT22;36795;45.028;38.968;2022-10-23T02:02:44;10.10;75.70
49385;DHT22;36795;45.028;38.968;2022-10-23T02:05:32;10.10;75.80
49385;DHT22;36795;45.028;38.968;2022-10-23T02:08:20;10.10;76.40
49385;DHT22;36795;45.028;38.968;2022-10-23T02:11:09;10.10;75.80
49385;DHT22;36795;45.028;38.968;2022-10-23T02:17:09;10.10;76.10
49385;DHT22;36795;45.028;38.968;2022-10-23T02:19:59;10.00;76.20
49385;DHT22;36795;45.028;38.968;2022-10-23T02:23:06;10.00;76.20
49385;DHT22;36795;45.028;38.968;2022-10-23T02:26:06;10.00;76.50
49385;DHT22;36795;45.028;38.968;2022-10-23T02:29:29;10.00;76.60
49385;DHT22;36795;45.028;38.968;2022-10-23T02:32:19;10.00;76.60
49385;DHT22;36795;45.028;38.968;2022-10-23T02:35:07;9.90;76.60
49385;DHT22;36795;45.028;38.968;2022-10-23T02:37:55;9.90;76.60
49385;DHT22;36795;45.028;38.968;2022-10-23T02:40:44;9.90;76.80
49385;DHT22;36795;45.028;38.968;2022-10-23T02:44:19;9.90;76.80
49385;DHT22;36795;45.028;38.968;2022-10-23T02:49:50;9.90;77.10
49385;DHT22;36795;45.028;38.968;2022-10-23T02:56:02;9.80;77.50
49385;DHT22;36795;45.028;38.968;2022-10-23T03:02:02;9.80;77.60
49385;DHT22;36795;45.028;38.968;2022-10-23T03:04:54;9.80;77.60
49385;DHT22;36795;45.028;38.968;2022-10-23T03:07:41;9.80;77.50
49385;DHT22;36795;45.028;38.968;2022-10-23T03:10:28;9.80;77.70
49385;DHT22;36795;45.028;38.968;2022-10-23T03:13:14;9.80;77.60
49385;DHT22;36795;45.028;38.968;2022-10-23T03:16:01;9.90;77.70
49385;DHT22;36795;45.028;38.968;2022-10-23T03:18:46;9.90;77.60
49385;DHT22;36795;45.028;38.968;2022-10-23T03:21:33;10.00;77.70
49385;DHT22;36795;45.028;38.968;2022-10-23T03:24:20;10.00;77.50
49385;DHT22;36795;45.028;38.968;2022-10-23T03:27:06;10.10;77.60
49385;DHT22;36795;45.028;38.968;2022-10-23T03:29:53;10.00;77.60
49385;DHT22;36795;45.028;38.968;2022-10-23T03:32:39;10.00;77.70
49385;DHT22;36795;45.028;38.968;2022-10-23T03:35:25;10.00;77.80
49385;DHT22;36795;45.028;38.968;2022-10-23T03:38:11;10.00;77.90
49385;DHT22;36795;45.028;38.968;2022-10-23T03:40:57;10.00;78.00
49385;DHT22;36795;45.028;38.968;2022-10-23T03:43:46;10.00;78.10
49385;DHT22;36795;45.028;38.968;2022-10-23T03:46:32;10.00;78.10
49385;DHT22;36795;45.028;38.968;2022-10-23T03:49:18;10.10;78.10
49385;DHT22;36795;45.028;38.968;2022-10-23T03:52:04;10.10;78.10
49385;DHT22;36795;45.028;38.968;2022-10-23T03:54:50;10.10;78.10
49385;DHT22;36795;45.028;38.968;2022-10-23T03:57:36;10.10;78.00
49385;DHT22;36795;45.028;38.968;2022-10-23T04:00:23;10.20;78.10
49385;DHT22;36795;45.028;38.968;2022-10-23T04:03:10;10.20;78.10
49385;DHT22;36795;45.028;38.968;2022-10-23T04:05:55;10.30;78.00
49385;DHT22;36795;45.028;38.968;2022-10-23T04:08:43;10.30;77.90
49385;DHT22;36795;45.028;38.968;2022-10-23T04:11:29;10.30;77.80
49385;DHT22;36795;45.028;38.968;2022-10-23T04:14:16;10.40;77.60
49385;DHT22;36795;45.028;38.968;2022-10-23T04:17:02;10.40;77.50
49385;DHT22;36795;45.028;38.968;2022-10-23T04:19:48;10.40;77.60
49385;DHT22;36795;45.028;38.968;2022-10-23T04:22:34;10.30;77.50
49385;DHT22;36795;45.028;38.968;2022-10-23T04:25:21;10.30;77.50
49385;DHT22;36795;45.028;38.968;2022-10-23T04:28:07;10.30;77.50
49385;DHT22;36795;45.028;38.968;2022-10-23T04:30:55;10.30;77.50
49385;DHT22;36795;45.028;38.968;2022-10-23T04:33:41;10.20;77.50
49385;DHT22;36795;45.028;38.968;2022-10-23T04:36:27;10.30;78.10
49385;DHT22;36795;45.028;38.968;2022-10-23T04:39:13;10.40;77.50
49385;DHT22;36795;45.028;38.968;2022-10-23T04:41:59;10.40;77.30
49385;DHT22;36795;45.028;38.968;2022-10-23T04:44:45;10.40;77.20
49385;DHT22;36795;45.028;38.968;2022-10-23T04:47:32;10.50;77.10
49385;DHT22;36795;45.028;38.968;2022-10-23T04:50:19;10.50;76.90
49385;DHT22;36795;45.028;38.968;2022-10-23T04:53:19;10.60;76.70
49385;DHT22;36795;45.028;38.968;2022-10-23T04:56:10;10.70;76.50
49385;DHT22;36795;45.028;38.968;2022-10-23T04:59:01;10.80;76.30
49385;DHT22;36795;45.028;38.968;2022-10-23T05:01:49;10.90;76.00
49385;DHT22;36795;45.028;38.968;2022-10-23T05:04:35;11.00;75.80
49385;DHT22;36795;45.028;38.968;2022-10-23T05:07:30;11.30;75.80
49385;DHT22;36795;45.028;38.968;2022-10-23T05:10:16;11.80;74.50
49385;DHT22;36795;45.028;38.968;2022-10-23T05:13:03;12.10;73.40
49385;DHT22;36795;45.028;38.968;2022-10-23T05:15:50;12.30;72.80
49385;DHT22;36795;45.028;38.968;2022-10-23T05:18:44;12.60;72.20
49385;DHT22;36795;45.028;38.968;2022-10-23T05:21:33;12.80;71.00
49385;DHT22;36795;45.028;38.968;2022-10-23T05:24:22;13.20;70.40
49385;DHT22;36795;45.028;38.968;2022-10-23T05:27:12;13.80;68.30
49385;DHT22;36795;45.028;38.968;2022-10-23T05:29:59;14.00;67.20
49385;DHT22;36795;45.028;38.968;2022-10-23T05:32:46;14.10;67.00
49385;DHT22;36795;45.028;38.968;2022-10-23T05:35:33;14.60;65.70
49385;DHT22;36795;45.028;38.968;2022-10-23T05:38:19;15.00;64.20
49385;DHT22;36795;45.028;38.968;2022-10-23T05:41:06;15.30;63.10
49385;DHT22;36795;45.028;38.968;2022-10-23T05:43:52;15.30;62.60
49385;DHT22;36795;45.028;38.968;2022-10-23T05:46:41;15.10;63.00
49385;DHT22;36795;45.028;38.968;2022-10-23T05:49:27;15.10;62.80
49385;DHT22;36795;45.028;38.968;2022-10-23T05:52:14;15.00;62.50
49385;DHT22;36795;45.028;38.968;2022-10-23T05:55:01;15.00;62.40
49385;DHT22;36795;45.028;38.968;2022-10-23T05:57:53;15.20;61.80
49385;DHT22;36795;45.028;38.968;2022-10-23T06:00:40;15.40;60.80
49385;DHT22;36795;45.028;38.968;2022-10-23T06:03:28;15.50;60.00
49385;DHT22;36795;45.028;38.968;2022-10-23T06:06:14;15.80;59.40
49385;DHT22;36795;45.028;38.968;2022-10-23T06:09:01;16.60;57.30
49385;DHT22;36795;45.028;38.968;2022-10-23T06:11:48;16.60;56.60
49385;DHT22;36795;45.028;38.968;2022-10-23T06:14:35;16.20;57.20
49385;DHT22;36795;45.028;38.968;2022-10-23T06:17:22;16.00;57.90
49385;DHT22;36795;45.028;38.968;2022-10-23T06:20:08;15.90;57.70
49385;DHT22;36795;45.028;38.968;2022-10-23T06:22:54;15.80;57.90
49385;DHT22;36795;45.028;38.968;2022-10-23T06:25:42;15.60;58.30
49385;DHT22;36795;45.028;38.968;2022-10-23T06:28:35;15.50;58.60
49385;DHT22;36795;45.028;38.968;2022-10-23T06:31:22;15.40;58.80
49385;DHT22;36795;45.028;38.968;2022-10-23T06:34:14;15.30;59.00
49385;DHT22;36795;45.028;38.968;2022-10-23T06:37:00;15.10;59.20
49385;DHT22;36795;45.028;38.968;2022-10-23T06:39:48;15.00;59.60
49385;DHT22;36795;45.028;38.968;2022-10-23T06:42:36;14.90;59.60
49385;DHT22;36795;45.028;38.968;2022-10-23T06:45:24;14.80;59.80
49385;DHT22;36795;45.028;38.968;2022-10-23T06:48:12;14.90;59.70
49385;DHT22;36795;45.028;38.968;2022-10-23T06:51:05;14.90;59.40
49385;DHT22;36795;45.028;38.968;2022-10-23T06:53:52;14.90;59.50
49385;DHT22;36795;45.028;38.968;2022-10-23T06:56:41;15.00;59.30
49385;DHT22;36795;45.028;38.968;2022-10-23T06:59:28;15.20;59.20
49385;DHT22;36795;45.028;38.968;2022-10-23T07:02:14;15.30;58.90
49385;DHT22;36795;45.028;38.968;2022-10-23T07:05:01;15.30;58.70
49385;DHT22;36795;45.028;38.968;2022-10-23T07:07:47;15.30;58.70
49385;DHT22;36795;45.028;38.968;2022-10-23T07:10:34;15.50;58.80
49385;DHT22;36795;45.028;38.968;2022-10-23T07:13:19;15.50;58.70
49385;DHT22;36795;45.028;38.968;2022-10-23T07:16:14;15.50;58.70
49385;DHT22;36795;45.028;38.968;2022-10-23T07:19:00;15.40;58.90
49385;DHT22;36795;45.028;38.968;2022-10-23T07:21:50;15.40;59.10
49385;DHT22;36795;45.028;38.968;2022-10-23T07:24:37;15.30;59.30
49385;DHT22;36795;45.028;38.968;2022-10-23T07:27:26;15.30;59.60
49385;DHT22;36795;45.028;38.968;2022-10-23T07:30:13;15.30;59.50
49385;DHT22;36795;45.028;38.968;2022-10-23T07:33:00;15.50;59.30
49385;DHT22;36795;45.028;38.968;2022-10-23T07:35:48;15.70;59.00
49385;DHT22;36795;45.028;38.968;2022-10-23T07:38:37;16.00;58.70
49385;DHT22;36795;45.028;38.968;2022-10-23T07:41:23;16.10;58.00
49385;DHT22;36795;45.028;38.968;2022-10-23T07:44:09;16.30;57.50
49385;DHT22;36795;45.028;38.968;2022-10-23T07:46:55;16.50;57.10
49385;DHT22;36795;45.028;38.968;2022-10-23T07:49:42;16.80;56.50
49385;DHT22;36795;45.028;38.968;2022-10-23T07:52:28;17.30;55.50
49385;DHT22;36795;45.028;38.968;2022-10-23T07:55:17;17.70;54.50
49385;DHT22;36795;45.028;38.968;2022-10-23T07:58:03;18.60;53.20
49385;DHT22;36795;45.028;38.968;2022-10-23T08:00:54;19.10;51.70
49385;DHT22;36795;45.028;38.968;2022-10-23T08:03:43;19.70;50.70
49385;DHT22;36795;45.028;38.968;2022-10-23T08:06:30;20.70;48.70
49385;DHT22;36795;45.028;38.968;2022-10-23T08:09:16;21.60;46.90
49385;DHT22;36795;45.028;38.968;2022-10-23T08:12:03;23.10;44.30
49385;DHT22;36795;45.028;38.968;2022-10-23T08:14:50;23.90;42.10
49385;DHT22;36795;45.028;38.968;2022-10-23T08:17:36;24.00;41.50
49385;DHT22;36795;45.028;38.968;2022-10-23T08:20:24;22.90;42.20
49385;DHT22;36795;45.028;38.968;2022-10-23T08:23:11;21.90;44.30
49385;DHT22;36795;45.028;38.968;2022-10-23T08:26:00;21.40;45.10
49385;DHT22;36795;45.028;38.968;2022-10-23T08:28:48;21.00;45.70
49385;DHT22;36795;45.028;38.968;2022-10-23T08:31:34;20.60;46.00
49385;DHT22;36795;45.028;38.968;2022-10-23T08:34:23;20.20;46.80
49385;DHT22;36795;45.028;38.968;2022-10-23T08:37:11;20.00;47.20
49385;DHT22;36795;45.028;38.968;2022-10-23T08:39:57;20.70;46.30
49385;DHT22;36795;45.028;38.968;2022-10-23T08:42:48;21.40;45.00
49385;DHT22;36795;45.028;38.968;2022-10-23T08:48:47;23.90;42.10
49385;DHT22;36795;45.028;38.968;2022-10-23T08:51:40;25.70;38.80
49385;DHT22;36795;45.028;38.968;2022-10-23T08:57:39;26.60;37.20
49385;DHT22;36795;45.028;38.968;2022-10-23T09:00:29;26.10;37.00
49385;DHT22;36795;45.028;38.968;2022-10-23T09:03:15;25.00;38.10
49385;DHT22;36795;45.028;38.968;2022-10-23T09:06:24;23.90;39.30
49385;DHT22;36795;45.028;38.968;2022-10-23T09:09:42;22.60;41.20
49385;DHT22;36795;45.028;38.968;2022-10-23T09:12:31;21.30;43.00
49385;DHT22;36795;45.028;38.968;2022-10-23T09:15:26;20.50;44.50
49385;DHT22;36795;45.028;38.968;2022-10-23T09:18:16;20.20;45.50
49385;DHT22;36795;45.028;38.968;2022-10-23T09:21:02;20.00;46.00
49385;DHT22;36795;45.028;38.968;2022-10-23T09:23:53;19.90;46.20
49385;DHT22;36795;45.028;38.968;2022-10-23T09:26:39;19.70;46.60
49385;DHT22;36795;45.028;38.968;2022-10-23T09:29:33;19.60;46.80
49385;DHT22;36795;45.028;38.968;2022-10-23T09:32:33;19.50;46.80
49385;DHT22;36795;45.028;38.968;2022-10-23T09:35:24;19.50;47.10
49385;DHT22;36795;45.028;38.968;2022-10-23T09:44:51;19.90;45.90
49385;DHT22;36795;45.028;38.968;2022-10-23T09:47:30;20.00;45.60
49385;DHT22;36795;45.028;38.968;2022-10-23T09:50:19;20.00;45.80
49385;DHT22;36795;45.028;38.968;2022-10-23T09:53:14;20.00;45.90
49385;DHT22;36795;45.028;38.968;2022-10-23T09:56:29;20.00;45.80
49385;DHT22;36795;45.028;38.968;2022-10-23T09:59:21;19.80;46.80
49385;DHT22;36795;45.028;38.968;2022-10-23T10:02:27;19.60;46.90
49385;DHT22;36795;45.028;38.968;2022-10-23T10:08:34;19.20;47.70
49385;DHT22;36795;45.028;38.968;2022-10-23T10:11:32;19.10;48.20
49385;DHT22;36795;45.028;38.968;2022-10-23T10:14:41;18.90;48.50
49385;DHT22;36795;45.028;38.968;2022-10-23T10:26:32;18.50;49.70
49385;DHT22;36795;45.028;38.968;2022-10-23T10:32:27;18.30;50.10
49385;DHT22;36795;45.028;38.968;2022-10-23T10:35:27;18.30;50.30
49385;DHT22;36795;45.028;38.968;2022-10-23T10:47:29;18.10;50.60
49385;DHT22;36795;45.028;38.968;2022-10-23T10:53:51;17.90;50.80
49385;DHT22;36795;45.028;38.968;2022-10-23T10:56:42;17.90;50.60
49385;DHT22;36795;45.028;38.968;2022-10-23T10:59:37;17.80;50.70
49385;DHT22;36795;45.028;38.968;2022-10-23T11:02:27;17.80;50.70
49385;DHT22;36795;45.028;38.968;2022-10-23T11:05:18;17.80;50.80
49385;DHT22;36795;45.028;38.968;2022-10-23T11:08:24;17.80;50.70
49385;DHT22;36795;45.028;38.968;2022-10-23T11:11:23;17.80;50.70
49385;DHT22;36795;45.028;38.968;2022-10-23T11:14:25;17.80;50.60
49385;DHT22;36795;45.028;38.968;2022-10-23T11:17:29;18.00;50.50
49385;DHT22;36795;45.028;38.968;2022-10-23T11:27:25;18.40;49.00
49385;DHT22;36795;45.028;38.968;2022-10-23T11:30:22;18.50;49.20
49385;DHT22;36795;45.028;38.968;2022-10-23T11:33:33;18.60;49.10
49385;DHT22;36795;45.028;38.968;2022-10-23T11:36:48;18.60;48.90
49385;DHT22;36795;45.028;38.968;2022-10-23T11:39:38;18.60;49.30
49385;DHT22;36795;45.028;38.968;2022-10-23T11:42:32;18.50;49.80
49385;DHT22;36795;45.028;38.968;2022-10-23T11:45:35;18.40;50.20
49385;DHT22;36795;45.028;38.968;2022-10-23T11:48:41;18.40;50.20
49385;DHT22;36795;45.028;38.968;2022-10-23T11:51:39;18.40;50.30
49385;DHT22;36795;45.028;38.968;2022-10-23T11:54:26;18.30;50.60
49385;DHT22;36795;45.028;38.968;2022-10-23T11:57:14;18.30;50.80
49385;DHT22;36795;45.028;38.968;2022-10-23T12:00:02;18.20;51.00
49385;DHT22;36795;45.028;38.968;2022-10-23T12:02:58;18.20;52.20
49385;DHT22;36795;45.028;38.968;2022-10-23T12:05:45;18.10;53.50
49385;DHT22;36795;45.028;38.968;2022-10-23T12:08:34;18.10;54.60
49385;DHT22;36795;45.028;38.968;2022-10-23T12:11:45;18.10;56.90
49385;DHT22;36795;45.028;38.968;2022-10-23T12:32:41;18.10;59.20
49385;DHT22;36795;45.028;38.968;2022-10-23T12:38:48;18.20;59.10
49385;DHT22;36795;45.028;38.968;2022-10-23T12:41:37;18.20;58.90
49385;DHT22;36795;45.028;38.968;2022-10-23T12:44:24;18.30;58.90
49385;DHT22;36795;45.028;38.968;2022-10-23T12:47:15;18.30;58.90
49385;DHT22;36795;45.028;38.968;2022-10-23T12:50:13;18.20;59.10
49385;DHT22;36795;45.028;38.968;2022-10-23T12:53:04;18.10;59.60
49385;DHT22;36795;45.028;38.968;2022-10-23T12:58:57;18.00;60.20
49385;DHT22;36795;45.028;38.968;2022-10-23T13:01:46;18.00;60.40
49385;DHT22;36795;45.028;38.968;2022-10-23T13:04:34;17.90;60.60
49385;DHT22;36795;45.028;38.968;2022-10-23T13:07:24;17.90;60.80
49385;DHT22;36795;45.028;38.968;2022-10-23T13:10:17;17.90;60.90
49385;DHT22;36795;45.028;38.968;2022-10-23T13:13:06;17.80;61.00
49385;DHT22;36795;45.028;38.968;2022-10-23T13:15:52;17.80;61.10
49385;DHT22;36795;45.028;38.968;2022-10-23T13:18:41;17.80;61.20
49385;DHT22;36795;45.028;38.968;2022-10-23T13:21:28;17.80;61.50
49385;DHT22;36795;45.028;38.968;2022-10-23T13:24:21;17.70;61.70
49385;DHT22;36795;45.028;38.968;2022-10-23T13:27:29;17.70;62.00
49385;DHT22;36795;45.028;38.968;2022-10-23T13:30:35;17.60;62.30
49385;DHT22;36795;45.028;38.968;2022-10-23T13:33:43;17.60;62.40
49385;DHT22;36795;45.028;38.968;2022-10-23T13:36:34;17.50;62.70
49385;DHT22;36795;45.028;38.968;2022-10-23T13:39:26;17.50;62.90
49385;DHT22;36795;45.028;38.968;2022-10-23T13:42:13;17.50;63.00
49385;DHT22;36795;45.028;38.968;2022-10-23T13:45:00;17.50;63.60
49385;DHT22;36795;45.028;38.968;2022-10-23T13:47:46;17.50;63.20
49385;DHT22;36795;45.028;38.968;2022-10-23T13:50:32;17.40;63.40
49385;DHT22;36795;45.028;38.968;2022-10-23T13:53:18;17.40;63.50
49385;DHT22;36795;45.028;38.968;2022-10-23T13:56:04;17.40;63.70
49385;DHT22;36795;45.028;38.968;2022-10-23T13:58:51;17.40;63.80
49385;DHT22;36795;45.028;38.968;2022-10-23T14:01:38;17.40;63.90
49385;DHT22;36795;45.028;38.968;2022-10-23T14:04:24;17.30;64.00
49385;DHT22;36795;45.028;38.968;2022-10-23T14:07:10;17.30;64.10
49385;DHT22;36795;45.028;38.968;2022-10-23T14:09:56;17.30;64.40
49385;DHT22;36795;45.028;38.968;2022-10-23T14:12:42;17.30;64.40
49385;DHT22;36795;45.028;38.968;2022-10-23T14:15:29;17.20;64.50
49385;DHT22;36795;45.028;38.968;2022-10-23T14:18:15;17.20;64.50
49385;DHT22;36795;45.028;38.968;2022-10-23T14:21:02;17.20;64.60
49385;DHT22;36795;45.028;38.968;2022-10-23T14:23:49;17.20;65.00
49385;DHT22;36795;45.028;38.968;2022-10-23T14:26:36;17.10;65.20
49385;DHT22;36795;45.028;38.968;2022-10-23T14:29:22;17.10;65.50
49385;DHT22;36795;45.028;38.968;2022-10-23T14:32:09;17.10;65.60
49385;DHT22;36795;45.028;38.968;2022-10-23T14:34:55;17.10;65.90
49385;DHT22;36795;45.028;38.968;2022-10-23T14:37:41;17.00;66.60
49385;DHT22;36795;45.028;38.968;2022-10-23T14:40:27;17.00;67.10
49385;DHT22;36795;45.028;38.968;2022-10-23T14:43:13;17.00;67.60
49385;DHT22;36795;45.028;38.968;2022-10-23T14:46:13;16.90;67.90
49385;DHT22;36795;45.028;38.968;2022-10-23T14:49:00;16.80;68.40
49385;DHT22;36795;45.028;38.968;2022-10-23T14:51:46;16.80;68.80
49385;DHT22;36795;45.028;38.968;2022-10-23T14:54:33;16.80;69.10
49385;DHT22;36795;45.028;38.968;2022-10-23T14:57:21;16.80;69.50
49385;DHT22;36795;45.028;38.968;2022-10-23T15:00:08;16.70;69.60
49385;DHT22;36795;45.028;38.968;2022-10-23T15:02:54;16.70;70.50
49385;DHT22;36795;45.028;38.968;2022-10-23T15:05:41;16.70;70.50
49385;DHT22;36795;45.028;38.968;2022-10-23T15:08:26;16.70;70.60
49385;DHT22;36795;45.028;38.968;2022-10-23T15:11:13;16.70;70.70
49385;DHT22;36795;45.028;38.968;2022-10-23T15:13:59;16.70;70.80
49385;DHT22;36795;45.028;38.968;2022-10-23T15:16:45;16.70;71.00
49385;DHT22;36795;45.028;38.968;2022-10-23T15:19:32;16.70;71.20
49385;DHT22;36795;45.028;38.968;2022-10-23T15:22:18;16.70;71.40
49385;DHT22;36795;45.028;38.968;2022-10-23T15:25:05;16.70;71.60
49385;DHT22;36795;45.028;38.968;2022-10-23T15:27:52;16.70;71.90
49385;DHT22;36795;45.028;38.968;2022-10-23T15:30:37;16.70;72.10
49385;DHT22;36795;45.028;38.968;2022-10-23T15:33:28;16.70;72.30
49385;DHT22;36795;45.028;38.968;2022-10-23T15:36:14;16.70;72.70
49385;DHT22;36795;45.028;38.968;2022-10-23T15:39:03;16.70;73.60
49385;DHT22;36795;45.028;38.968;2022-10-23T15:41:52;16.60;74.00
49385;DHT22;36795;45.028;38.968;2022-10-23T15:44:40;16.60;74.30
49385;DHT22;36795;45.028;38.968;2022-10-23T15:47:25;16.50;74.60
49385;DHT22;36795;45.028;38.968;2022-10-23T15:50:13;16.30;74.30
49385;DHT22;36795;45.028;38.968;2022-10-23T15:52:59;16.30;72.90
49385;DHT22;36795;45.028;38.968;2022-10-23T15:55:46;16.30;73.30
49385;DHT22;36795;45.028;38.968;2022-10-23T15:58:32;16.30;74.20
49385;DHT22;36795;45.028;38.968;2022-10-23T16:01:18;16.20;74.50
49385;DHT22;36795;45.028;38.968;2022-10-23T16:04:04;16.10;74.80
49385;DHT22;36795;45.028;38.968;2022-10-23T16:06:50;16.10;75.20
49385;DHT22;36795;45.028;38.968;2022-10-23T16:09:36;16.10;75.50
49385;DHT22;36795;45.028;38.968;2022-10-23T16:12:24;16.10;75.90
49385;DHT22;36795;45.028;38.968;2022-10-23T16:15:10;16.00;76.10
49385;DHT22;36795;45.028;38.968;2022-10-23T16:17:56;15.90;76.40
49385;DHT22;36795;45.028;38.968;2022-10-23T16:20:42;15.90;76.60
49385;DHT22;36795;45.028;38.968;2022-10-23T16:23:28;15.90;76.80
49385;DHT22;36795;45.028;38.968;2022-10-23T16:26:18;15.90;77.10
49385;DHT22;36795;45.028;38.968;2022-10-23T16:29:06;15.80;77.00
49385;DHT22;36795;45.028;38.968;2022-10-23T16:31:53;15.80;77.20
49385;DHT22;36795;45.028;38.968;2022-10-23T16:34:40;15.80;77.20
49385;DHT22;36795;45.028;38.968;2022-10-23T16:37:26;15.70;77.50
49385;DHT22;36795;45.028;38.968;2022-10-23T16:40:12;15.70;77.60
49385;DHT22;36795;45.028;38.968;2022-10-23T16:43:03;15.70;77.80
49385;DHT22;36795;45.028;38.968;2022-10-23T16:46:06;15.70;77.80
49385;DHT22;36795;45.028;38.968;2022-10-23T16:48:54;15.70;77.90
49385;DHT22;36795;45.028;38.968;2022-10-23T16:51:41;15.60;77.90
49385;DHT22;36795;45.028;38.968;2022-10-23T16:54:27;15.60;78.10
49385;DHT22;36795;45.028;38.968;2022-10-23T16:57:14;15.60;78.10
49385;DHT22;36795;45.028;38.968;2022-10-23T17:00:00;15.60;78.20
49385;DHT22;36795;45.028;38.968;2022-10-23T17:02:46;15.60;78.20
49385;DHT22;36795;45.028;38.968;2022-10-23T17:05:35;15.60;78.30
49385;DHT22;36795;45.028;38.968;2022-10-23T17:08:21;15.60;78.40
49385;DHT22;36795;45.028;38.968;2022-10-23T17:11:14;15.50;78.40
49385;DHT22;36795;45.028;38.968;2022-10-23T17:14:03;15.50;78.50
49385;DHT22;36795;45.028;38.968;2022-10-23T17:16:50;15.50;78.50
49385;DHT22;36795;45.028;38.968;2022-10-23T17:19:37;15.50;78.30
49385;DHT22;36795;45.028;38.968;2022-10-23T17:22:26;15.50;78.20
49385;DHT22;36795;45.028;38.968;2022-10-23T17:25:11;15.60;78.10
49385;DHT22;36795;45.028;38.968;2022-10-23T17:27:58;15.50;77.80
49385;DHT22;36795;45.028;38.968;2022-10-23T17:30:44;15.50;77.70
49385;DHT22;36795;45.028;38.968;2022-10-23T17:33:31;15.50;77.70
49385;DHT22;36795;45.028;38.968;2022-10-23T17:36:19;15.40;77.60
49385;DHT22;36795;45.028;38.968;2022-10-23T17:39:11;15.40;77.60
49385;DHT22;36795;45.028;38.968;2022-10-23T17:41:58;15.40;77.40
49385;DHT22;36795;45.028;38.968;2022-10-23T17:44:45;15.40;77.40
49385;DHT22;36795;45.028;38.968;2022-10-23T17:47:32;15.40;77.20
49385;DHT22;36795;45.028;38.968;2022-10-23T17:50:20;15.40;77.00
49385;DHT22;36795;45.028;38.968;2022-10-23T17:53:07;15.40;76.90
49385;DHT22;36795;45.028;38.968;2022-10-23T17:55:55;15.40;76.90
49385;DHT22;36795;45.028;38.968;2022-10-23T17:58:41;15.30;76.70
49385;DHT22;36795;45.028;38.968;2022-10-23T18:01:29;15.40;76.60
49385;DHT22;36795;45.028;38.968;2022-10-23T18:04:18;15.30;76.40
49385;DHT22;36795;45.028;38.968;2022-10-23T18:07:04;15.30;76.20
49385;DHT22;36795;45.028;38.968;2022-10-23T18:09:51;15.30;76.10
49385;DHT22;36795;45.028;38.968;2022-10-23T18:12:37;15.30;76.00
49385;DHT22;36795;45.028;38.968;2022-10-23T18:15:24;15.30;76.00
49385;DHT22;36795;45.028;38.968;2022-10-23T18:18:10;15.30;75.90
49385;DHT22;36795;45.028;38.968;2022-10-23T18:21:01;15.30;75.80
49385;DHT22;36795;45.028;38.968;2022-10-23T18:23:48;15.30;75.70
49385;DHT22;36795;45.028;38.968;2022-10-23T18:26:35;15.30;75.80
49385;DHT22;36795;45.028;38.968;2022-10-23T18:29:23;15.30;75.70
49385;DHT22;36795;45.028;38.968;2022-10-23T18:32:10;15.30;75.80
49385;DHT22;36795;45.028;38.968;2022-10-23T18:34:57;15.30;75.90
49385;DHT22;36795;45.028;38.968;2022-10-23T18:37:43;15.20;75.90
49385;DHT22;36795;45.028;38.968;2022-10-23T18:40:30;15.20;76.10
49385;DHT22;36795;45.028;38.968;2022-10-23T18:43:17;15.20;76.20
49385;DHT22;36795;45.028;38.968;2022-10-23T18:46:03;15.30;76.30
49385;DHT22;36795;45.028;38.968;2022-10-23T18:48:50;15.30;76.40
49385;DHT22;36795;45.028;38.968;2022-10-23T18:51:36;15.30;76.60
49385;DHT22;36795;45.028;38.968;2022-10-23T18:54:24;15.30;76.70
49385;DHT22;36795;45.028;38.968;2022-10-23T18:57:10;15.30;76.70
49385;DHT22;36795;45.028;38.968;2022-10-23T18:59:56;15.20;76.70
49385;DHT22;36795;45.028;38.968;2022-10-23T19:02:42;15.20;76.90
49385;DHT22;36795;45.028;38.968;2022-10-23T19:05:28;15.20;76.90
49385;DHT22;36795;45.028;38.968;2022-10-23T19:08:14;15.20;77.00
49385;DHT22;36795;45.028;38.968;2022-10-23T19:11:00;15.10;77.20